createdAt,value
2019-02-21T00:00:28.998Z,7.32
2019-02-21T00:01:38.949Z,7.31
2019-02-21T00:02:48.914Z,7.28
2019-02-21T00:03:58.590Z,7.28
2019-02-21T00:05:08.555Z,7.31
2019-02-21T00:06:18.502Z,7.32
2019-02-21T00:07:28.444Z,7.28
2019-02-21T00:08:38.147Z,7.33
2019-02-21T00:09:47.834Z,7.32
2019-02-21T00:10:57.280Z,7.37
2019-02-21T00:12:06.987Z,7.18
2019-02-21T00:13:16.436Z,7.21
2019-02-21T00:14:26.137Z,7.23
2019-02-21T00:15:35.847Z,7.19
2019-02-21T00:16:45.794Z,7.21
2019-02-21T00:17:55.246Z,7.18
2019-02-21T00:19:05.221Z,7.18
2019-02-21T00:20:15.178Z,7.18
2019-02-21T00:21:25.121Z,7.18
2019-02-21T00:22:34.804Z,7.15
2019-02-21T00:23:44.766Z,7.15
2019-02-21T00:24:54.733Z,7.04
2019-02-21T00:26:04.675Z,7.04
2019-02-21T00:27:14.628Z,7.04
2019-02-21T00:28:24.115Z,7.03
2019-02-21T00:29:34.063Z,7.04
2019-02-21T00:30:43.753Z,7.03
2019-02-21T00:31:53.252Z,7
2019-02-21T00:33:03.197Z,7.03
2019-02-21T00:34:12.883Z,7.08
2019-02-21T00:35:22.822Z,7.05
2019-02-21T00:36:32.510Z,7.1
2019-02-21T00:37:42.474Z,7.07
2019-02-21T00:38:51.917Z,7.08
2019-02-21T00:40:01.612Z,7.03
2019-02-21T00:41:11.542Z,7.05
2019-02-21T00:42:21.474Z,7.05
2019-02-21T00:43:31.429Z,7.07
2019-02-21T00:44:41.128Z,7.05
2019-02-21T00:45:51.075Z,7.15
2019-02-21T00:47:01.013Z,7.04
2019-02-21T00:48:10.726Z,7.05
2019-02-21T00:49:20.671Z,7.19
2019-02-21T00:50:30.625Z,7.03
2019-02-21T00:51:40.554Z,7.03
2019-02-21T00:52:50.487Z,7.14
2019-02-21T00:54:00.422Z,7.14
2019-02-21T00:55:10.194Z,7.03
2019-02-21T00:56:20.221Z,7.04
2019-02-21T00:57:29.925Z,7.04
2019-02-21T00:58:39.621Z,7.1
2019-02-21T00:59:50.857Z,7.04
2019-02-21T01:01:00.758Z,7.11
2019-02-21T01:02:10.440Z,7.05
2019-02-21T01:03:20.132Z,7.1
2019-02-21T01:04:29.860Z,7.03
2019-02-21T01:05:39.839Z,7.01
2019-02-21T01:06:49.104Z,7.01
2019-02-21T01:07:58.813Z,7.07
2019-02-21T01:09:08.496Z,7.04
2019-02-21T01:10:18.437Z,7.04
2019-02-21T01:11:27.879Z,7.08
2019-02-21T01:12:37.593Z,7.01
2019-02-21T01:13:47.280Z,7.01
2019-02-21T01:14:56.958Z,7.07
2019-02-21T01:16:06.680Z,6.97
2019-02-21T01:17:16.622Z,7.04
2019-02-21T01:18:26.576Z,7.05
2019-02-21T01:19:36.526Z,7.05
2019-02-21T01:20:46.220Z,7.05
2019-02-21T01:21:55.927Z,6.97
2019-02-21T01:23:05.916Z,6.93
2019-02-21T01:24:15.888Z,7.05
2019-02-21T01:25:25.858Z,6.96
2019-02-21T01:26:35.808Z,6.95
2019-02-21T01:27:45.781Z,6.93
2019-02-21T01:28:55.514Z,7.01
2019-02-21T01:30:05.445Z,6.96
2019-02-21T01:31:15.180Z,6.96
2019-02-21T01:32:25.117Z,6.83
2019-02-21T01:33:34.822Z,6.86
2019-02-21T01:34:44.521Z,6.87
2019-02-21T01:35:54.457Z,6.87
2019-02-21T01:37:03.889Z,6.9
2019-02-21T01:38:13.634Z,6.9
2019-02-21T01:39:23.600Z,6.96
2019-02-21T01:40:33.550Z,6.87
2019-02-21T01:41:43.268Z,6.93
2019-02-21T01:42:53.206Z,6.96
2019-02-21T01:44:04.618Z,6.96
2019-02-21T01:45:14.665Z,6.93
2019-02-21T01:46:24.859Z,6.96
2019-02-21T01:47:34.805Z,6.95
2019-02-21T01:48:44.738Z,6.97
2019-02-21T01:49:54.495Z,6.95
2019-02-21T01:51:04.533Z,6.95
2019-02-21T01:52:13.976Z,6.97
2019-02-21T01:53:23.673Z,6.95
2019-02-21T01:54:33.622Z,6.97
2019-02-21T01:55:43.565Z,6.87
2019-02-21T01:56:53.499Z,6.96
2019-02-21T01:58:03.429Z,7
2019-02-21T01:59:13.131Z,6.96
2019-02-21T02:00:22.818Z,6.97
2019-02-21T02:01:32.765Z,6.95
2019-02-21T02:02:42.444Z,6.97
2019-02-21T02:03:52.402Z,6.97
2019-02-21T02:05:02.108Z,6.96
2019-02-21T02:06:11.823Z,6.96
2019-02-21T02:07:21.515Z,6.92
2019-02-21T02:08:30.962Z,6.96
2019-02-21T02:09:40.647Z,6.95
2019-02-21T02:10:50.578Z,6.97
2019-02-21T02:12:00.267Z,7.01
2019-02-21T02:13:21.646Z,7.01
2019-02-21T02:14:33.688Z,6.96
2019-02-21T02:15:43.635Z,7.05
2019-02-21T02:16:53.610Z,7.05
2019-02-21T02:18:03.570Z,7.01
2019-02-21T02:19:13.000Z,7.01
2019-02-21T02:20:22.939Z,7.07
2019-02-21T02:21:33.009Z,7.03
2019-02-21T02:22:42.962Z,7.04
2019-02-21T02:23:52.400Z,7.03
2019-02-21T02:25:02.346Z,7.08
2019-02-21T02:26:12.284Z,7.04
2019-02-21T02:27:22.227Z,7.14
2019-02-21T02:28:31.932Z,7.13
2019-02-21T02:29:41.379Z,7.11
2019-02-21T02:30:51.074Z,7.18
2019-02-21T02:32:00.526Z,7.14
2019-02-21T02:33:10.245Z,7.13
2019-02-21T02:34:19.776Z,7.1
2019-02-21T02:35:29.726Z,7.18
2019-02-21T02:36:39.680Z,7.1
2019-02-21T02:37:49.390Z,7.22
2019-02-21T02:38:59.358Z,7.21
2019-02-21T02:40:09.068Z,7.19
2019-02-21T02:41:18.796Z,7.15
2019-02-21T02:42:28.551Z,7.22
2019-02-21T02:43:38.485Z,7.18
2019-02-21T02:44:48.442Z,7.13
2019-02-21T02:45:58.398Z,7.19
2019-02-21T02:47:08.096Z,7.04
2019-02-21T02:48:18.039Z,7.03
2019-02-21T02:49:27.999Z,7.13
2019-02-21T02:50:37.727Z,7.01
2019-02-21T02:51:47.665Z,7.03
2019-02-21T02:52:57.598Z,7.03
2019-02-21T02:54:07.338Z,7.05
2019-02-21T02:55:17.299Z,7.01
2019-02-21T02:56:27.244Z,7.03
2019-02-21T02:57:36.455Z,7.03
2019-02-21T02:58:48.186Z,7.07
2019-02-21T02:59:58.137Z,7.04
2019-02-21T03:01:08.183Z,7.03
2019-02-21T03:02:17.666Z,7.05
2019-02-21T03:03:27.630Z,7.05
2019-02-21T03:04:37.834Z,7.05
2019-02-21T03:05:47.925Z,7.07
2019-02-21T03:06:57.369Z,7.05
2019-02-21T03:08:07.081Z,7.05
2019-02-21T03:09:17.032Z,7.03
2019-02-21T03:10:26.737Z,7.01
2019-02-21T03:11:36.456Z,7.07
2019-02-21T03:12:46.161Z,7.01
2019-02-21T03:13:56.139Z,7.03
2019-02-21T03:15:06.095Z,7.07
2019-02-21T03:16:15.645Z,7.18
2019-02-21T03:17:25.361Z,7.1
2019-02-21T03:18:35.317Z,7.18
2019-02-21T03:19:45.267Z,7.07
2019-02-21T03:20:54.962Z,7.07
2019-02-21T03:22:04.648Z,7.14
2019-02-21T03:23:14.606Z,7.13
2019-02-21T03:24:24.542Z,7.14
2019-02-21T03:25:34.503Z,7.13
2019-02-21T03:26:44.206Z,7.15
2019-02-21T03:27:53.902Z,7.13
2019-02-21T03:29:03.836Z,7.14
2019-02-21T03:30:17.257Z,7.11
2019-02-21T03:31:27.219Z,7.14
2019-02-21T03:32:37.349Z,7.15
2019-02-21T03:33:46.834Z,7.15
2019-02-21T03:34:56.862Z,7.11
2019-02-21T03:36:06.846Z,7.15
2019-02-21T03:37:16.708Z,7.11
2019-02-21T03:38:26.503Z,7.1
2019-02-21T03:39:40.289Z,7.04
2019-02-21T03:40:50.229Z,7.14
2019-02-21T03:42:00.158Z,7.14
2019-02-21T03:43:10.192Z,7.15
2019-02-21T03:44:20.135Z,7.13
2019-02-21T03:45:29.618Z,7.13
2019-02-21T03:46:39.303Z,7.11
2019-02-21T03:47:49.240Z,7.1
2019-02-21T03:48:58.677Z,7.15
2019-02-21T03:50:08.670Z,7.04
2019-02-21T03:51:18.639Z,7.01
2019-02-21T03:52:28.705Z,7.08
2019-02-21T03:53:38.648Z,7.07
2019-02-21T03:54:48.608Z,7.03
2019-02-21T03:55:58.541Z,7.04
2019-02-21T03:57:08.258Z,7.07
2019-02-21T03:58:18.202Z,7.04
2019-02-21T03:59:28.151Z,7.01
2019-02-21T04:00:38.098Z,6.93
2019-02-21T04:01:48.061Z,7.01
2019-02-21T04:03:09.812Z,6.97
2019-02-21T04:04:19.799Z,6.97
2019-02-21T04:05:29.763Z,6.96
2019-02-21T04:06:39.455Z,6.95
2019-02-21T04:07:49.150Z,7.05
2019-02-21T04:08:58.615Z,6.95
2019-02-21T04:10:08.048Z,6.95
2019-02-21T04:11:17.987Z,6.93
2019-02-21T04:12:27.994Z,6.95
2019-02-21T04:13:37.691Z,6.96
2019-02-21T04:14:47.397Z,6.95
2019-02-21T04:15:57.089Z,7.01
2019-02-21T04:17:06.786Z,6.95
2019-02-21T04:18:16.737Z,6.96
2019-02-21T04:19:26.438Z,6.9
2019-02-21T04:20:36.382Z,6.89
2019-02-21T04:21:46.339Z,6.96
2019-02-21T04:22:56.300Z,6.83
2019-02-21T04:24:06.352Z,6.9
2019-02-21T04:25:16.325Z,6.86
2019-02-21T04:26:26.272Z,6.83
2019-02-21T04:27:36.233Z,6.9
2019-02-21T04:28:48.341Z,6.85
2019-02-21T04:29:58.117Z,6.87
2019-02-21T04:31:08.104Z,6.87
2019-02-21T04:32:21.974Z,6.82
2019-02-21T04:33:34.205Z,6.86
2019-02-21T04:34:44.424Z,6.89
2019-02-21T04:35:54.414Z,6.86
2019-02-21T04:37:04.359Z,6.86
2019-02-21T04:38:14.307Z,6.82
2019-02-21T04:39:24.246Z,6.85
2019-02-21T04:40:33.999Z,6.85
2019-02-21T04:41:43.976Z,6.8
2019-02-21T04:42:53.945Z,6.72
2019-02-21T04:44:06.427Z,6.7
2019-02-21T04:45:16.124Z,6.67
2019-02-21T04:46:25.869Z,6.68
2019-02-21T04:47:35.577Z,6.68
2019-02-21T04:48:45.543Z,6.7
2019-02-21T04:49:55.497Z,6.65
2019-02-21T04:51:05.872Z,6.6
2019-02-21T04:52:15.865Z,6.57
2019-02-21T04:53:25.895Z,6.59
2019-02-21T04:54:35.848Z,6.64
2019-02-21T04:55:45.805Z,6.65
2019-02-21T04:56:55.501Z,6.56
2019-02-21T04:58:05.519Z,6.62
2019-02-21T04:59:14.968Z,6.6
2019-02-21T05:00:24.915Z,6.59
2019-02-21T05:01:34.879Z,6.62
2019-02-21T05:02:45.711Z,6.56
2019-02-21T05:03:55.664Z,6.59
2019-02-21T05:05:05.376Z,6.6
2019-02-21T05:06:15.545Z,6.62
2019-02-21T05:07:25.497Z,6.62
2019-02-21T05:08:35.227Z,6.6
2019-02-21T05:09:56.945Z,6.56
2019-02-21T05:11:07.342Z,6.64
2019-02-21T05:12:17.044Z,6.57
2019-02-21T05:13:26.987Z,6.57
2019-02-21T05:14:39.169Z,6.56
2019-02-21T05:15:49.156Z,6.56
2019-02-21T05:17:00.654Z,6.54
2019-02-21T05:18:10.774Z,6.57
2019-02-21T05:19:20.730Z,6.57
2019-02-21T05:20:30.420Z,6.62
2019-02-21T05:21:40.142Z,6.57
2019-02-21T05:22:50.098Z,6.57
2019-02-21T05:23:59.848Z,6.59
2019-02-21T05:25:09.547Z,6.57
2019-02-21T05:26:19.492Z,6.52
2019-02-21T05:27:29.463Z,6.56
2019-02-21T05:28:41.150Z,6.59
2019-02-21T05:29:51.268Z,6.54
2019-02-21T05:31:01.173Z,6.59
2019-02-21T05:32:11.139Z,6.59
2019-02-21T05:33:21.097Z,6.5
2019-02-21T05:34:31.079Z,6.43
2019-02-21T05:35:40.795Z,6.36
2019-02-21T05:36:50.494Z,6.41
2019-02-21T05:38:00.434Z,6.39
2019-02-21T05:39:13.030Z,6.32
2019-02-21T05:40:22.751Z,6.35
2019-02-21T05:41:33.769Z,6.32
2019-02-21T05:42:43.468Z,6.34
2019-02-21T05:43:52.683Z,6.31
2019-02-21T05:45:04.411Z,6.36
2019-02-21T05:46:16.199Z,6.38
2019-02-21T05:47:26.132Z,6.28
2019-02-21T05:48:35.831Z,6.34
2019-02-21T05:49:47.736Z,6.29
2019-02-21T05:50:57.706Z,6.31
2019-02-21T05:52:07.695Z,6.34
2019-02-21T05:53:17.153Z,6.31
2019-02-21T05:54:27.240Z,6.32
2019-02-21T05:55:37.204Z,6.32
2019-02-21T05:56:46.927Z,6.28
2019-02-21T05:57:56.879Z,6.25
2019-02-21T05:59:06.861Z,6.26
2019-02-21T06:00:16.813Z,6.32
2019-02-21T06:01:26.886Z,6.28
2019-02-21T06:02:36.581Z,6.28
2019-02-21T06:03:57.786Z,6.29
2019-02-21T06:05:08.775Z,6.31
2019-02-21T06:06:19.519Z,6.31
2019-02-21T06:07:29.486Z,6.29
2019-02-21T06:08:39.539Z,6.34
2019-02-21T06:09:51.774Z,6.26
2019-02-21T06:11:01.723Z,6.28
2019-02-21T06:12:11.847Z,6.26
2019-02-21T06:13:21.878Z,6.32
2019-02-21T06:14:31.581Z,6.32
2019-02-21T06:15:41.534Z,6.28
2019-02-21T06:16:51.228Z,6.28
2019-02-21T06:18:00.935Z,6.35
2019-02-21T06:19:10.878Z,6.34
2019-02-21T06:20:22.786Z,6.32
2019-02-21T06:21:32.492Z,6.28
2019-02-21T06:22:42.432Z,6.25
2019-02-21T06:23:54.082Z,6.38
2019-02-21T06:25:04.170Z,6.32
2019-02-21T06:26:14.193Z,6.32
2019-02-21T06:27:23.908Z,6.34
2019-02-21T06:28:33.879Z,6.41
2019-02-21T06:29:43.586Z,6.31
2019-02-21T06:30:53.540Z,6.34
2019-02-21T06:32:13.507Z,6.35
2019-02-21T06:33:23.975Z,6.39
2019-02-21T06:34:36.645Z,6.36
2019-02-21T06:35:46.341Z,6.31
2019-02-21T06:36:56.285Z,6.29
2019-02-21T06:38:05.993Z,6.38
2019-02-21T06:39:15.445Z,6.41
2019-02-21T06:40:25.414Z,6.38
2019-02-21T06:41:35.114Z,6.38
2019-02-21T06:42:47.878Z,6.38
2019-02-21T06:43:59.337Z,6.43
2019-02-21T06:45:09.304Z,6.41
2019-02-21T06:46:19.178Z,6.47
2019-02-21T06:47:29.162Z,6.5
2019-02-21T06:48:39.787Z,6.49
2019-02-21T06:49:49.726Z,6.54
2019-02-21T06:50:59.670Z,6.5
2019-02-21T06:52:09.638Z,6.5
2019-02-21T06:53:21.041Z,6.52
2019-02-21T06:54:30.735Z,6.54
2019-02-21T06:55:40.678Z,6.59
2019-02-21T06:56:50.620Z,6.59
2019-02-21T06:58:00.551Z,6.59
2019-02-21T06:59:10.246Z,6.56
2019-02-21T07:00:20.041Z,6.59
2019-02-21T07:01:34.009Z,6.67
2019-02-21T07:02:43.953Z,6.62
2019-02-21T07:03:53.895Z,6.65
2019-02-21T07:05:03.582Z,6.7
2019-02-21T07:06:13.288Z,6.67
2019-02-21T07:07:24.484Z,6.78
2019-02-21T07:08:34.197Z,6.71
2019-02-21T07:09:44.992Z,6.77
2019-02-21T07:11:05.384Z,6.8
2019-02-21T07:12:15.563Z,6.87
2019-02-21T07:13:31.623Z,6.86
2019-02-21T07:14:41.564Z,6.87
2019-02-21T07:15:51.515Z,6.78
2019-02-21T07:17:03.615Z,6.83
2019-02-21T07:18:16.068Z,6.8
2019-02-21T07:19:25.824Z,6.85
2019-02-21T07:20:35.826Z,6.87
2019-02-21T07:21:47.496Z,6.86
2019-02-21T07:22:57.251Z,7
2019-02-21T07:24:07.216Z,6.96
2019-02-21T07:25:16.921Z,6.9
2019-02-21T07:26:26.981Z,6.89
2019-02-21T07:27:36.968Z,6.96
2019-02-21T07:28:46.989Z,6.96
2019-02-21T07:29:56.997Z,6.96
2019-02-21T07:31:06.711Z,6.96
2019-02-21T07:32:16.668Z,6.97
2019-02-21T07:33:33.496Z,7
2019-02-21T07:34:43.468Z,7.01
2019-02-21T07:35:53.503Z,6.92
2019-02-21T07:37:03.262Z,7.04
2019-02-21T07:38:23.889Z,7.05
2019-02-21T07:39:40.960Z,7.07
2019-02-21T07:40:50.999Z,7.1
2019-02-21T07:42:00.406Z,7.03
2019-02-21T07:43:12.649Z,7.01
2019-02-21T07:44:22.532Z,7.03
2019-02-21T07:45:32.486Z,7.03
2019-02-21T07:46:46.255Z,7.01
2019-02-21T07:47:58.465Z,7.01
2019-02-21T07:49:08.186Z,7.11
2019-02-21T07:50:18.135Z,7.14
2019-02-21T07:51:30.779Z,7.04
2019-02-21T07:52:43.517Z,7.11
2019-02-21T07:53:53.227Z,7.13
2019-02-21T07:55:06.793Z,7.14
2019-02-21T07:56:17.781Z,7.21
2019-02-21T07:57:27.472Z,7.19
2019-02-21T07:58:39.392Z,7.25
2019-02-21T07:59:49.689Z,7.19
2019-02-21T08:00:59.679Z,7.21
2019-02-21T08:02:09.383Z,7.15
2019-02-21T08:03:29.738Z,7.23
2019-02-21T08:04:53.558Z,7.33
2019-02-21T08:06:03.267Z,7.15
2019-02-21T08:07:12.996Z,7.36
2019-02-21T08:08:23.978Z,7.31
2019-02-21T08:09:33.706Z,7.28
2019-02-21T08:10:43.661Z,7.32
2019-02-21T08:11:53.627Z,7.29
2019-02-21T08:13:03.588Z,7.29
2019-02-21T08:14:15.869Z,7.39
2019-02-21T08:15:27.620Z,7.36
2019-02-21T08:16:37.791Z,7.37
2019-02-21T08:17:47.745Z,7.36
2019-02-21T08:18:57.690Z,7.32
2019-02-21T08:20:13.495Z,7.33
2019-02-21T08:21:23.468Z,7.28
2019-02-21T08:22:33.079Z,7.32
2019-02-21T08:23:54.553Z,7.22
2019-02-21T08:25:06.898Z,7.31
2019-02-21T08:26:16.649Z,7.33
2019-02-21T08:27:27.850Z,7.33
2019-02-21T08:28:37.297Z,7.33
2019-02-21T08:29:47.111Z,7.21
2019-02-21T08:30:58.088Z,7.32
2019-02-21T08:32:08.246Z,7.21
2019-02-21T08:33:17.944Z,7.21
2019-02-21T08:34:27.908Z,7.18
2019-02-21T08:35:37.867Z,7.1
2019-02-21T08:36:47.880Z,7.1
2019-02-21T08:37:57.584Z,7.05
2019-02-21T08:39:07.546Z,7.03
2019-02-21T08:40:17.022Z,7.03
2019-02-21T08:41:28.081Z,7.01
2019-02-21T08:42:38.039Z,7.07
2019-02-21T08:43:47.490Z,7.05
2019-02-21T08:44:57.186Z,7.05
2019-02-21T08:46:07.140Z,7.01
2019-02-21T08:47:16.899Z,7.08
2019-02-21T08:48:26.377Z,7.03
2019-02-21T08:49:36.333Z,7.03
2019-02-21T08:50:46.306Z,7.05
2019-02-21T08:51:57.387Z,7.07
2019-02-21T08:53:07.378Z,7.07
2019-02-21T08:54:18.367Z,7.07
2019-02-21T08:55:28.141Z,7.07
2019-02-21T08:56:38.129Z,7.13
2019-02-21T08:57:47.881Z,7.1
2019-02-21T08:58:57.601Z,7.18
2019-02-21T09:00:07.580Z,7.22
2019-02-21T09:01:18.889Z,7.22
2019-02-21T09:02:28.621Z,7.21
2019-02-21T09:03:40.997Z,7.18
2019-02-21T09:04:50.778Z,7.15
2019-02-21T09:06:00.361Z,7.22
2019-02-21T09:07:10.369Z,7.26
2019-02-21T09:08:32.609Z,7.37
2019-02-21T09:09:45.020Z,7.31
2019-02-21T09:10:55.017Z,7.33
2019-02-21T09:12:05.702Z,7.37
2019-02-21T09:13:15.580Z,7.36
2019-02-21T09:14:25.076Z,7.32
2019-02-21T09:15:35.041Z,7.41
2019-02-21T09:16:44.307Z,7.47
2019-02-21T09:17:56.730Z,7.48
2019-02-21T09:19:06.501Z,7.46
2019-02-21T09:20:16.000Z,7.48
2019-02-21T09:21:25.954Z,7.44
2019-02-21T09:22:35.920Z,7.48
2019-02-21T09:23:45.441Z,7.48
2019-02-21T09:24:55.411Z,7.5
2019-02-21T09:26:07.855Z,7.43
2019-02-21T09:27:17.819Z,7.48
2019-02-21T09:28:27.791Z,7.55
2019-02-21T09:29:37.258Z,7.47
2019-02-21T09:30:47.323Z,7.46
2019-02-21T09:31:57.071Z,7.51
2019-02-21T09:33:16.946Z,7.46
2019-02-21T09:34:28.933Z,7.43
2019-02-21T09:35:38.395Z,7.55
2019-02-21T09:36:48.100Z,7.48
2019-02-21T09:37:57.823Z,7.47
2019-02-21T09:39:07.659Z,7.48
2019-02-21T09:40:17.643Z,7.5
2019-02-21T09:41:28.637Z,7.47
2019-02-21T09:42:38.508Z,7.5
2019-02-21T09:43:50.825Z,7.41
2019-02-21T09:45:00.991Z,7.43
2019-02-21T09:46:10.961Z,7.51
2019-02-21T09:47:20.938Z,7.5
2019-02-21T09:48:30.898Z,7.48
2019-02-21T09:49:40.883Z,7.47
2019-02-21T09:50:50.860Z,7.48
2019-02-21T09:52:00.826Z,7.55
2019-02-21T09:53:10.818Z,7.55
2019-02-21T09:54:21.596Z,7.53
2019-02-21T09:55:32.250Z,7.55
2019-02-21T09:56:52.023Z,7.59
2019-02-21T09:58:02.568Z,7.61
2019-02-21T09:59:12.525Z,7.74
2019-02-21T10:00:22.524Z,7.64
2019-02-21T10:01:32.258Z,7.8
2019-02-21T10:02:44.483Z,7.8
2019-02-21T10:03:57.123Z,7.85
2019-02-21T10:05:10.335Z,7.84
2019-02-21T10:06:20.049Z,7.83
2019-02-21T10:07:29.800Z,7.85
2019-02-21T10:08:42.431Z,7.87
2019-02-21T10:09:52.163Z,7.93
2019-02-21T10:11:03.389Z,8.03
2019-02-21T10:12:13.460Z,7.96
2019-02-21T10:13:23.217Z,7.99
2019-02-21T10:14:33.217Z,8.01
2019-02-21T10:15:43.174Z,8.08
2019-02-21T10:16:54.524Z,8.02
2019-02-21T10:18:04.281Z,8.06
2019-02-21T10:19:13.967Z,8.06
2019-02-21T10:20:23.899Z,8.05
2019-02-21T10:21:33.862Z,8.09
2019-02-21T10:22:43.859Z,8.32
2019-02-21T10:23:53.327Z,8.45
2019-02-21T10:25:04.506Z,8.46
2019-02-21T10:26:14.670Z,8.6
2019-02-21T10:27:24.154Z,8.72
2019-02-21T10:28:35.024Z,8.69
2019-02-21T10:29:45.012Z,8.81
2019-02-21T10:30:54.962Z,8.89
2019-02-21T10:32:04.901Z,8.97
2019-02-21T10:33:14.605Z,8.95
2019-02-21T10:34:26.681Z,9.12
2019-02-21T10:35:36.371Z,9.08
2019-02-21T10:36:45.818Z,9.16
2019-02-21T10:37:55.273Z,9.18
2019-02-21T10:39:05.291Z,9.13
2019-02-21T10:40:15.245Z,9.09
2019-02-21T10:41:25.203Z,9.18
2019-02-21T10:42:34.914Z,9.18
2019-02-21T10:43:44.638Z,9.16
2019-02-21T10:44:54.596Z,9.12
2019-02-21T10:46:04.583Z,9.15
2019-02-21T10:47:14.548Z,9.18
2019-02-21T10:48:24.715Z,9.05
2019-02-21T10:49:34.704Z,9.16
2019-02-21T10:50:44.672Z,9.15
2019-02-21T10:51:54.683Z,9.16
2019-02-21T10:53:04.408Z,9.29
2019-02-21T10:54:14.352Z,9.4
2019-02-21T10:55:24.349Z,9.55
2019-02-21T10:56:34.454Z,9.73
2019-02-21T10:57:45.416Z,9.82
2019-02-21T10:58:55.629Z,9.97
2019-02-21T11:00:05.344Z,10.12
2019-02-21T11:01:15.081Z,10.21
2019-02-21T11:02:24.776Z,10.09
2019-02-21T11:03:34.746Z,10.21
2019-02-21T11:04:56.904Z,10.3
2019-02-21T11:06:06.690Z,10.36
2019-02-21T11:07:16.397Z,10.38
2019-02-21T11:08:26.369Z,10.34
2019-02-21T11:09:36.355Z,10.51
2019-02-21T11:10:46.312Z,10.46
2019-02-21T11:11:56.288Z,10.43
2019-02-21T11:13:06.262Z,10.57
2019-02-21T11:14:16.242Z,10.68
2019-02-21T11:15:25.959Z,10.76
2019-02-21T11:16:35.789Z,10.64
2019-02-21T11:17:45.287Z,10.68
2019-02-21T11:18:55.261Z,10.62
2019-02-21T11:20:04.989Z,10.57
2019-02-21T11:21:14.712Z,10.42
2019-02-21T11:22:24.668Z,10.59
2019-02-21T11:23:34.117Z,10.64
2019-02-21T11:24:43.826Z,10.64
2019-02-21T11:25:53.786Z,10.64
2019-02-21T11:27:03.748Z,10.77
2019-02-21T11:28:13.494Z,10.9
2019-02-21T11:29:23.214Z,10.89
2019-02-21T11:30:33.245Z,10.87
2019-02-21T11:31:43.200Z,10.97
2019-02-21T11:32:52.898Z,11.12
2019-02-21T11:34:02.620Z,11.2
2019-02-21T11:35:12.334Z,11.3
2019-02-21T11:36:22.296Z,11.26
2019-02-21T11:37:42.329Z,11.4
2019-02-21T11:38:54.891Z,11.37
2019-02-21T11:40:07.845Z,11.31
2019-02-21T11:41:17.306Z,11.44
2019-02-21T11:42:27.261Z,11.52
2019-02-21T11:43:36.975Z,11.51
2019-02-21T11:44:46.944Z,11.55
2019-02-21T11:46:01.757Z,11.55
2019-02-21T11:47:11.852Z,11.41
2019-02-21T11:48:21.550Z,11.16
2019-02-21T11:49:31.504Z,11.13
2019-02-21T11:50:40.958Z,11.02
2019-02-21T11:51:50.664Z,10.95
2019-02-21T11:53:00.618Z,10.9
2019-02-21T11:54:10.605Z,10.9
2019-02-21T11:55:32.725Z,10.92
2019-02-21T11:56:42.181Z,10.86
2019-02-21T11:57:52.160Z,10.8
2019-02-21T11:59:02.140Z,10.65
2019-02-21T12:00:12.129Z,10.65
2019-02-21T12:01:22.086Z,10.67
2019-02-21T12:02:41.206Z,10.62
2019-02-21T12:03:50.938Z,10.51
2019-02-21T12:05:00.920Z,10.51
2019-02-21T12:06:22.346Z,10.65
2019-02-21T12:07:32.041Z,10.65
2019-02-21T12:08:41.990Z,10.69
2019-02-21T12:09:52.016Z,10.77
2019-02-21T12:11:02.004Z,10.68
2019-02-21T12:12:12.719Z,10.67
2019-02-21T12:13:22.454Z,10.64
2019-02-21T12:14:32.219Z,10.68
2019-02-21T12:15:41.676Z,10.75
2019-02-21T12:16:51.640Z,10.72
2019-02-21T12:18:01.626Z,10.67
2019-02-21T12:19:11.586Z,10.68
2019-02-21T12:20:21.350Z,10.65
2019-02-21T12:21:31.055Z,10.62
2019-02-21T12:22:41.042Z,10.71
2019-02-21T12:23:50.751Z,10.89
2019-02-21T12:25:00.466Z,10.89
2019-02-21T12:26:10.416Z,10.95
2019-02-21T12:27:20.423Z,10.95
2019-02-21T12:28:29.983Z,11
2019-02-21T12:29:40.195Z,11.07
2019-02-21T12:30:50.187Z,10.92
2019-02-21T12:31:59.905Z,10.84
2019-02-21T12:33:09.878Z,10.86
2019-02-21T12:34:19.896Z,10.98
2019-02-21T12:35:34.653Z,10.95
2019-02-21T12:36:44.608Z,10.9
2019-02-21T12:37:54.557Z,11.07
2019-02-21T12:39:04.282Z,10.94
2019-02-21T12:40:14.251Z,10.94
2019-02-21T12:41:24.527Z,10.95
2019-02-21T12:42:34.486Z,10.97
2019-02-21T12:43:44.436Z,10.92
2019-02-21T12:44:54.478Z,11.07
2019-02-21T12:46:04.458Z,10.95
2019-02-21T12:47:14.444Z,10.87
2019-02-21T12:48:24.142Z,10.86
2019-02-21T12:49:35.152Z,10.9
2019-02-21T12:50:49.154Z,10.86
2019-02-21T12:52:00.023Z,10.84
2019-02-21T12:53:09.961Z,10.86
2019-02-21T12:54:19.935Z,10.9
2019-02-21T12:55:36.484Z,10.87
2019-02-21T12:56:46.182Z,10.82
2019-02-21T12:57:56.146Z,10.84
2019-02-21T12:59:05.915Z,10.86
2019-02-21T13:00:15.631Z,10.9
2019-02-21T13:01:25.405Z,10.83
2019-02-21T13:02:35.163Z,10.8
2019-02-21T13:03:45.120Z,10.79
2019-02-21T13:04:54.796Z,10.69
2019-02-21T13:06:04.486Z,10.67
2019-02-21T13:07:13.967Z,10.62
2019-02-21T13:08:23.923Z,10.62
2019-02-21T13:09:33.359Z,10.55
2019-02-21T13:10:43.077Z,10.53
2019-02-21T13:11:53.046Z,10.49
2019-02-21T13:13:03.017Z,10.58
2019-02-21T13:14:12.723Z,10.58
2019-02-21T13:15:22.430Z,10.57
2019-02-21T13:16:32.471Z,10.55
2019-02-21T13:17:42.266Z,10.57
2019-02-21T13:18:52.263Z,10.62
2019-02-21T13:20:02.248Z,10.55
2019-02-21T13:21:12.064Z,10.61
2019-02-21T13:22:22.061Z,10.51
2019-02-21T13:23:31.769Z,10.65
2019-02-21T13:24:41.730Z,10.67
2019-02-21T13:25:51.437Z,10.55
2019-02-21T13:27:01.388Z,10.61
2019-02-21T13:28:11.342Z,10.68
2019-02-21T13:29:21.045Z,10.65
2019-02-21T13:30:31.002Z,10.75
2019-02-21T13:31:40.713Z,10.69
2019-02-21T13:32:50.712Z,10.79
2019-02-21T13:34:00.688Z,10.76
2019-02-21T13:35:10.667Z,10.76
2019-02-21T13:36:20.656Z,10.79
2019-02-21T13:37:33.325Z,10.82
2019-02-21T13:38:42.783Z,10.89
2019-02-21T13:39:52.495Z,10.89
2019-02-21T13:41:02.202Z,10.94
2019-02-21T13:42:11.931Z,10.89
2019-02-21T13:43:21.654Z,10.98
2019-02-21T13:44:31.711Z,10.95
2019-02-21T13:45:41.488Z,10.98
2019-02-21T13:46:51.451Z,10.9
2019-02-21T13:48:01.402Z,10.97
2019-02-21T13:49:11.401Z,11
2019-02-21T13:50:23.618Z,10.97
2019-02-21T13:51:33.474Z,11.07
2019-02-21T13:52:43.414Z,11
2019-02-21T13:53:54.815Z,10.97
2019-02-21T13:55:04.780Z,11.01
2019-02-21T13:56:14.753Z,11.04
2019-02-21T13:57:24.474Z,11.07
2019-02-21T13:58:34.447Z,11.1
2019-02-21T13:59:44.176Z,10.98
2019-02-21T14:00:53.864Z,11.02
2019-02-21T14:02:03.571Z,11.02
2019-02-21T14:03:13.524Z,10.95
2019-02-21T14:04:23.645Z,10.9
2019-02-21T14:05:33.394Z,11.01
2019-02-21T14:06:43.071Z,11.04
2019-02-21T14:07:53.033Z,11.01
2019-02-21T14:09:02.983Z,10.9
2019-02-21T14:10:12.935Z,10.94
2019-02-21T14:11:22.666Z,10.94
2019-02-21T14:12:32.626Z,10.94
2019-02-21T14:13:42.414Z,10.92
2019-02-21T14:14:52.230Z,10.87
2019-02-21T14:16:01.753Z,10.94
2019-02-21T14:17:11.707Z,11.02
2019-02-21T14:18:24.473Z,10.9
2019-02-21T14:19:34.314Z,10.89
2019-02-21T14:20:50.241Z,10.86
2019-02-21T14:22:00.204Z,10.87
2019-02-21T14:23:10.158Z,10.9
2019-02-21T14:24:20.135Z,10.9
2019-02-21T14:25:45.779Z,10.89
2019-02-21T14:26:55.805Z,10.84
2019-02-21T14:28:05.845Z,10.83
2019-02-21T14:29:15.807Z,10.75
2019-02-21T14:30:25.768Z,10.62
2019-02-21T14:31:38.334Z,10.68
2019-02-21T14:32:48.261Z,10.59
2019-02-21T14:33:58.990Z,10.42
2019-02-21T14:35:08.797Z,10.36
2019-02-21T14:36:22.930Z,10.18
2019-02-21T14:37:32.635Z,10.23
2019-02-21T14:38:42.769Z,10.23
2019-02-21T14:39:52.523Z,10.1
2019-02-21T14:41:02.496Z,10.07
2019-02-21T14:42:12.501Z,10
2019-02-21T14:43:22.281Z,10
2019-02-21T14:44:32.233Z,9.99
2019-02-21T14:45:41.953Z,10
2019-02-21T14:46:52.806Z,9.95
2019-02-21T14:48:02.787Z,9.92
2019-02-21T14:49:12.596Z,9.95
2019-02-21T14:50:22.547Z,9.94
2019-02-21T14:51:31.975Z,9.88
2019-02-21T14:52:41.908Z,9.81
2019-02-21T14:53:51.569Z,9.85
2019-02-21T14:55:01.289Z,9.72
2019-02-21T14:56:11.481Z,9.69
2019-02-21T14:57:21.178Z,9.72
2019-02-21T14:58:31.150Z,9.63
2019-02-21T14:59:40.894Z,9.58
2019-02-21T15:00:52.429Z,9.56
2019-02-21T15:02:01.908Z,9.54
2019-02-21T15:03:23.991Z,9.62
2019-02-21T15:04:33.936Z,9.54
2019-02-21T15:05:45.739Z,9.66
2019-02-21T15:06:55.194Z,9.59
2019-02-21T15:08:04.896Z,9.62
2019-02-21T15:09:14.601Z,9.63
2019-02-21T15:10:24.313Z,9.54
2019-02-21T15:11:34.247Z,9.59
2019-02-21T15:12:43.807Z,9.55
2019-02-21T15:13:53.514Z,9.54
2019-02-21T15:15:03.291Z,9.7
2019-02-21T15:16:13.255Z,9.69
2019-02-21T15:17:23.504Z,9.67
2019-02-21T15:18:33.459Z,9.66
2019-02-21T15:19:43.162Z,9.74
2019-02-21T15:20:53.108Z,9.72
2019-02-21T15:22:03.081Z,9.74
2019-02-21T15:23:13.059Z,9.73
2019-02-21T15:24:22.803Z,9.7
2019-02-21T15:25:32.248Z,9.74
2019-02-21T15:26:42.498Z,9.72
2019-02-21T15:27:54.283Z,9.8
2019-02-21T15:29:04.741Z,9.74
2019-02-21T15:30:14.223Z,9.76
2019-02-21T15:31:24.175Z,9.81
2019-02-21T15:32:34.141Z,9.77
2019-02-21T15:33:43.850Z,9.84